Time;durP1;ratioP1;P1;durP2;ratioP2;P2;SDS_P1;SDS_P2;PMS_P1;PMS_P2;Temp;Humidity;BMP_temperature;BMP_pressure;BME280_temperature;BME280_humidity;BME280_pressure;Samples;Min_cycle;Max_cycle;Signal;HPM_P1;HPM_P2
2023/07/25 00:01:53;;;;;;;;;;;;;;;19.93;36.97;99390.59;4921110;28;98253;-72
2023/07/25 00:04:19;;;;;;;;;;;;;;;19.91;37.17;99400.31;4885466;28;98395;-72
2023/07/25 00:06:46;;;;;;;;;;;;;;;19.87;37.34;99394.75;4885926;28;99255;-73
2023/07/25 00:09:13;;;;;;;;;;;;;;;19.84;37.05;99384.50;4904905;28;97990;-73
2023/07/25 00:11:42;;;;;;;;;;;;;;;19.81;37.20;99394.25;4919989;28;97899;-73
2023/07/25 00:14:09;;;;;;;;;;;;;;;19.79;37.13;99395.72;4906387;28;98220;-72
2023/07/25 00:16:36;;;;;;;;;;;;;;;19.78;37.31;99400.41;4934646;28;98089;-72
2023/07/25 00:19:03;;;;;;;;;;;;;;;19.76;37.23;99391.75;4881791;28;97985;-73
2023/07/25 00:21:30;;;;;;;;;;;;;;;19.77;37.27;99398.03;4919041;28;98113;-73
2023/07/25 00:23:57;;;;;;;;;;;;;;;19.75;37.19;99383.91;4901546;28;98991;-72
2023/07/25 00:26:23;;;;;;;;;;;;;;;19.74;37.18;99382.34;4899644;28;98112;-73
2023/07/25 00:28:50;;;;;;;;;;;;;;;19.74;37.11;99385.88;4902358;28;98639;-72
2023/07/25 00:31:16;;;;;;;;;;;;;;;19.78;37.20;99388.69;4921265;28;98433;-72
2023/07/25 00:33:44;;;;;;;;;;;;;;;19.84;37.22;99395.44;4900247;28;98661;-73
2023/07/25 00:36:10;;;;;;;;;;;;;;;19.88;37.30;99390.88;4885874;28;98845;-73
2023/07/25 00:38:36;;;;;;;;;;;;;;;19.90;37.22;99401.47;4904964;28;98616;-72
2023/07/25 00:41:03;;;;;;;;;;;;;;;19.94;36.86;99396.88;4915384;28;98059;-73
2023/07/25 00:43:31;;;;;;;;;;;;;;;19.95;37.20;99393.75;4906011;28;98041;-72
2023/07/25 00:45:57;;;;;;;;;;;;;;;19.95;37.18;99392.97;4899782;28;98591;-72
2023/07/25 00:48:24;;;;;;;;;;;;;;;19.95;37.19;99390.25;4903669;28;98204;-72
2023/07/25 00:50:51;;;;;;;;;;;;;;;19.96;37.24;99389.09;4904339;28;97851;-73
2023/07/25 00:53:18;;;;;;;;;;;;;;;19.97;37.33;99394.22;4908759;28;98347;-73
2023/07/25 00:55:45;;;;;;;;;;;;;;;19.96;37.29;99389.09;4884820;28;97977;-73
2023/07/25 00:58:11;;;;;;;;;;;;;;;19.95;37.40;99395.72;4888654;28;97943;-72
2023/07/25 01:00:39;;;;;;;;;;;;;;;19.96;37.30;99409.00;4899869;28;98454;-72
2023/07/25 01:03:06;;;;;;;;;;;;;;;19.94;37.24;99392.19;4916447;28;97992;-73
2023/07/25 01:05:33;;;;;;;;;;;;;;;19.93;37.41;99395.28;4916495;28;97996;-73
2023/07/25 01:08:00;;;;;;;;;;;;;;;19.92;37.40;99410.09;4884926;28;97998;-72
2023/07/25 01:10:27;;;;;;;;;;;;;;;19.90;37.32;99413.19;4879528;28;98690;-72
2023/07/25 01:12:54;;;;;;;;;;;;;;;19.86;37.31;99413.09;4902074;28;97973;-72
2023/07/25 01:15:20;;;;;;;;;;;;;;;19.85;37.35;99410.72;4916795;28;98156;-72
2023/07/25 01:17:47;;;;;;;;;;;;;;;19.82;37.30;99406.75;4898329;28;99760;-73
2023/07/25 01:20:14;;;;;;;;;;;;;;;19.81;37.37;99412.59;4898838;28;98009;-72
2023/07/25 01:22:41;;;;;;;;;;;;;;;19.77;37.50;99415.25;4920175;28;98459;-72
2023/07/25 01:25:08;;;;;;;;;;;;;;;19.74;37.40;99420.63;4887393;28;98308;-72
2023/07/25 01:27:36;;;;;;;;;;;;;;;19.70;37.58;99422.47;4901162;28;98816;-72
2023/07/25 01:30:03;;;;;;;;;;;;;;;19.66;37.53;99425.13;4888871;28;97978;-72
2023/07/25 01:32:30;;;;;;;;;;;;;;;19.63;37.58;99427.75;4900093;28;97899;-73
2023/07/25 01:34:57;;;;;;;;;;;;;;;19.56;37.36;99422.88;4902432;28;99879;-72
2023/07/25 01:37:24;;;;;;;;;;;;;;;19.50;37.48;99413.34;4919437;28;99053;-72
2023/07/25 01:39:51;;;;;;;;;;;;;;;19.46;37.53;99418.72;4902628;28;98379;-73
2023/07/25 01:42:18;;;;;;;;;;;;;;;19.46;37.61;99417.94;4920566;28;98379;-72
2023/07/25 01:44:45;;;;;;;;;;;;;;;19.45;37.70;99430.00;4905691;28;98091;-72
2023/07/25 01:47:11;;;;;;;;;;;;;;;19.43;37.57;99424.09;4888379;28;98261;-72
2023/07/25 01:49:39;;;;;;;;;;;;;;;19.41;37.59;99427.16;4922077;28;99200;-72
2023/07/25 01:52:07;;;;;;;;;;;;;;;19.40;37.66;99427.53;4884276;28;98218;-72
2023/07/25 01:54:36;;;;;;;;;;;;;;;19.37;37.47;99429.84;4920634;28;98887;-73
2023/07/25 01:57:05;;;;;;;;;;;;;;;19.35;37.62;99429.38;4901719;28;99550;-72
2023/07/25 01:59:32;;;;;;;;;;;;;;;19.33;37.70;99422.66;4904470;28;98145;-72
2023/07/25 02:01:59;;;;;;;;;;;;;;;19.32;37.54;99437.47;4907068;28;98059;-72
2023/07/25 02:04:26;;;;;;;;;;;;;;;19.31;37.62;99427.69;4883275;28;98317;-72
2023/07/25 02:06:53;;;;;;;;;;;;;;;19.30;37.52;99431.59;4921407;28;98425;-72
2023/07/25 02:09:20;;;;;;;;;;;;;;;19.25;37.57;99429.88;4903010;28;98452;-72
2023/07/25 02:11:47;;;;;;;;;;;;;;;19.23;37.72;99431.38;4902727;28;100243;-72
2023/07/25 02:14:14;;;;;;;;;;;;;;;19.20;37.74;99443.81;4920044;28;98111;-72
2023/07/25 02:16:41;;;;;;;;;;;;;;;19.17;37.85;99441.75;4921685;28;97898;-72
2023/07/25 02:19:09;;;;;;;;;;;;;;;19.14;37.73;99445.22;4920054;28;97972;-72
2023/07/25 02:21:35;;;;;;;;;;;;;;;19.13;37.60;99452.59;4905478;28;98339;-72
2023/07/25 02:24:02;;;;;;;;;;;;;;;19.12;37.69;99439.28;4906691;28;98321;-72
2023/07/25 02:26:28;;;;;;;;;;;;;;;19.10;37.60;99447.06;4916502;28;98176;-72
2023/07/25 02:28:54;;;;;;;;;;;;;;;19.08;37.64;99450.13;4902270;28;98253;-72
2023/07/25 02:31:21;;;;;;;;;;;;;;;19.07;37.81;99448.53;4907063;28;97972;-72
2023/07/25 02:33:47;;;;;;;;;;;;;;;19.05;37.74;99441.81;4903423;28;98893;-72
2023/07/25 02:36:15;;;;;;;;;;;;;;;19.03;37.77;99439.44;4921766;28;98203;-72
2023/07/25 02:38:41;;;;;;;;;;;;;;;18.99;37.77;99443.22;4908944;28;98390;-72
2023/07/25 02:41:07;;;;;;;;;;;;;;;18.95;37.79;99442.34;4903307;28;100172;-72
2023/07/25 02:43:35;;;;;;;;;;;;;;;18.93;37.75;99441.88;4906429;28;98356;-72
2023/07/25 02:46:02;;;;;;;;;;;;;;;18.91;37.93;99436.78;4905339;28;98035;-72
2023/07/25 02:48:32;;;;;;;;;;;;;;;18.88;37.60;99435.53;4903721;28;98084;-72
2023/07/25 02:50:59;;;;;;;;;;;;;;;18.87;37.81;99444.06;4889464;28;98033;-72
2023/07/25 02:53:26;;;;;;;;;;;;;;;18.85;37.87;99433.47;4919563;28;98317;-72
2023/07/25 02:55:53;;;;;;;;;;;;;;;18.83;37.82;99441.25;4902360;28;98522;-72
2023/07/25 02:58:20;;;;;;;;;;;;;;;18.81;37.81;99424.41;4920525;28;98296;-72
2023/07/25 03:00:48;;;;;;;;;;;;;;;18.80;37.89;99432.94;4919283;28;98285;-72
2023/07/25 03:03:14;;;;;;;;;;;;;;;18.80;37.95;99441.13;4921434;28;98527;-72
2023/07/25 03:05:40;;;;;;;;;;;;;;;18.80;37.75;99438.41;4888424;28;98275;-72
2023/07/25 03:08:07;;;;;;;;;;;;;;;18.79;38.02;99436.81;4902288;28;98635;-72
2023/07/25 03:10:34;;;;;;;;;;;;;;;18.78;37.99;99438.72;4903221;28;97980;-72
2023/07/25 03:13:02;;;;;;;;;;;;;;;18.76;37.84;99434.78;4885294;28;98055;-72
2023/07/25 03:15:29;;;;;;;;;;;;;;;18.72;37.96;99434.69;4919852;28;98611;-72
2023/07/25 03:17:56;;;;;;;;;;;;;;;18.71;37.79;99441.28;4918801;28;98396;-72
2023/07/25 03:20:22;;;;;;;;;;;;;;;18.69;37.97;99446.25;4902428;28;98198;-72
2023/07/25 03:22:49;;;;;;;;;;;;;;;18.68;38.02;99449.34;4900052;28;98352;-72
2023/07/25 03:25:15;;;;;;;;;;;;;;;18.67;37.92;99447.72;4899119;28;98259;-72
2023/07/25 03:27:42;;;;;;;;;;;;;;;18.68;38.12;99449.34;4899800;28;97935;-72
2023/07/25 03:30:08;;;;;;;;;;;;;;;18.66;37.99;99452.38;4883821;28;98104;-72
2023/07/25 03:32:35;;;;;;;;;;;;;;;18.68;37.90;99452.06;4918867;28;97855;-72
2023/07/25 03:35:02;;;;;;;;;;;;;;;18.69;38.04;99454.44;4916949;28;99530;-72
2023/07/25 03:37:29;;;;;;;;;;;;;;;18.69;38.04;99459.09;4888990;28;98145;-72
2023/07/25 03:39:55;;;;;;;;;;;;;;;18.70;37.92;99458.78;4887094;28;98264;-72
2023/07/25 03:42:21;;;;;;;;;;;;;;;18.72;38.00;99458.44;4899752;28;98522;-72
2023/07/25 03:44:49;;;;;;;;;;;;;;;18.75;37.92;99457.75;4885667;28;98205;-72
2023/07/25 03:47:16;;;;;;;;;;;;;;;18.76;37.80;99460.13;4884161;28;98490;-72
2023/07/25 03:49:45;;;;;;;;;;;;;;;18.76;38.00;99457.41;4902119;28;103942;-72
2023/07/25 03:52:12;;;;;;;;;;;;;;;18.76;37.79;99467.53;4918301;28;99620;-71
2023/07/25 03:54:38;;;;;;;;;;;;;;;18.79;37.99;99472.31;4919665;28;100303;-71
2023/07/25 03:57:05;;;;;;;;;;;;;;;18.81;37.84;99468.06;4902578;28;98049;-71
2023/07/25 03:59:32;;;;;;;;;;;;;;;18.84;37.86;99480.25;4902070;28;98133;-71
2023/07/25 04:01:59;;;;;;;;;;;;;;;18.87;37.81;99485.81;4920526;28;98238;-72
2023/07/25 04:04:26;;;;;;;;;;;;;;;18.89;37.92;99485.47;4919622;28;98686;-72
2023/07/25 04:06:53;;;;;;;;;;;;;;;18.87;37.84;99483.09;4917906;28;98412;-71
2023/07/25 04:09:20;;;;;;;;;;;;;;;18.85;37.77;99477.16;4904709;28;98447;-71
2023/07/25 04:11:46;;;;;;;;;;;;;;;18.85;37.88;99471.69;4881731;28;98201;-71
2023/07/25 04:14:13;;;;;;;;;;;;;;;18.87;37.93;99471.38;4900332;28;98223;-71
2023/07/25 04:16:39;;;;;;;;;;;;;;;18.89;37.91;99483.50;4882050;28;100344;-71
2023/07/25 04:19:08;;;;;;;;;;;;;;;18.94;37.85;99481.69;4897374;28;99706;-71
2023/07/25 04:21:35;;;;;;;;;;;;;;;19.00;37.97;99467.44;4898845;28;98710;-71
2023/07/25 04:24:05;;;;;;;;;;;;;;;19.07;37.75;99451.25;4900749;28;97880;-71
2023/07/25 04:26:31;;;;;;;;;;;;;;;19.15;37.66;99449.53;4903047;28;98148;-71
2023/07/25 04:28:59;;;;;;;;;;;;;;;19.20;37.68;99448.47;4919307;28;98548;-70
2023/07/25 04:31:26;;;;;;;;;;;;;;;19.19;37.68;99450.41;4887257;28;97938;-71
2023/07/25 04:33:53;;;;;;;;;;;;;;;19.20;37.77;99446.53;4915957;28;98267;-71
2023/07/25 04:36:20;;;;;;;;;;;;;;;19.22;37.92;99454.41;4920178;28;98346;-72
2023/07/25 04:38:48;;;;;;;;;;;;;;;19.25;37.78;99448.22;4882068;28;98026;-71
2023/07/25 04:41:15;;;;;;;;;;;;;;;19.25;37.78;99451.72;4917845;28;98644;-72
2023/07/25 04:43:41;;;;;;;;;;;;;;;19.25;37.74;99449.00;4903213;28;99035;-72
2023/07/25 04:46:08;;;;;;;;;;;;;;;19.25;37.75;99442.75;4895142;28;98049;-71
2023/07/25 04:48:35;;;;;;;;;;;;;;;19.23;38.02;99443.09;4900845;28;98675;-72
2023/07/25 04:51:02;;;;;;;;;;;;;;;19.22;37.92;99440.75;4883599;28;98061;-71
2023/07/25 04:53:28;;;;;;;;;;;;;;;19.23;37.84;99453.25;4913950;28;97839;-74
2023/07/25 04:55:55;;;;;;;;;;;;;;;19.23;37.99;99470.44;4883242;28;99377;-71
2023/07/25 04:58:22;;;;;;;;;;;;;;;19.23;38.02;99472.38;4898721;28;98294;-73
2023/07/25 05:00:49;;;;;;;;;;;;;;;19.24;38.06;99490.34;4881253;28;98189;-72
2023/07/25 05:03:16;;;;;;;;;;;;;;;19.26;37.96;99502.50;4900987;28;97980;-73
2023/07/25 05:05:43;;;;;;;;;;;;;;;19.27;38.04;99508.75;4903963;28;98140;-71
2023/07/25 05:08:10;;;;;;;;;;;;;;;19.26;38.17;99499.00;4898191;28;98126;-72
2023/07/25 05:10:37;;;;;;;;;;;;;;;19.31;37.95;99496.00;4889314;28;97978;-71
2023/07/25 05:13:04;;;;;;;;;;;;;;;19.33;38.04;99489.03;4922030;28;97825;-72
2023/07/25 05:15:30;;;;;;;;;;;;;;;19.38;37.94;99485.28;4924008;28;99269;-72
2023/07/25 05:17:57;;;;;;;;;;;;;;;19.46;37.79;99491.72;4941017;28;98134;-71
2023/07/25 05:20:24;;;;;;;;;;;;;;;19.50;37.75;99492.59;4902290;28;97934;-72
2023/07/25 05:22:51;;;;;;;;;;;;;;;19.53;37.64;99494.63;4891029;28;98119;-71
2023/07/25 05:25:18;;;;;;;;;;;;;;;19.61;37.78;99502.72;4882903;28;99070;-71
2023/07/25 05:27:44;;;;;;;;;;;;;;;19.72;37.77;99488.50;4909218;28;97990;-73
2023/07/25 05:30:12;;;;;;;;;;;;;;;19.85;37.57;99496.28;4905212;28;97983;-71
2023/07/25 05:32:39;;;;;;;;;;;;;;;20.07;37.45;99505.78;4888104;28;98159;-73
2023/07/25 05:35:06;;;;;;;;;;;;;;;20.22;37.23;99517.88;4904522;28;98182;-72
2023/07/25 05:37:38;;;;;;;;;;;;;;;20.20;37.43;99519.38;4922547;28;99324;-73
2023/07/25 05:40:05;;;;;;;;;;;;;;;20.13;37.46;99524.69;4885116;28;98215;-73
2023/07/25 05:42:32;;;;;;;;;;;;;;;20.09;37.54;99524.59;4887884;28;98417;-72
2023/07/25 05:44:59;;;;;;;;;;;;;;;20.09;37.54;99535.53;4918779;28;97923;-73
2023/07/25 05:47:27;;;;;;;;;;;;;;;20.05;37.68;99543.66;4918607;28;97922;-71
2023/07/25 05:49:54;;;;;;;;;;;;;;;20.05;37.66;99542.88;4887103;28;97972;-72
2023/07/25 05:52:20;;;;;;;;;;;;;;;20.03;37.58;99547.88;4905638;28;98138;-73
2023/07/25 05:54:49;;;;;;;;;;;;;;;20.08;37.80;99548.44;4907166;28;98119;-73
2023/07/25 05:57:16;;;;;;;;;;;;;;;20.11;37.62;99552.38;4907370;28;98195;-71
2023/07/25 05:59:43;;;;;;;;;;;;;;;20.10;37.57;99550.81;4887995;28;98105;-73
2023/07/25 06:02:10;;;;;;;;;;;;;;;20.11;37.65;99547.69;4903177;28;97997;-70
2023/07/25 06:04:36;;;;;;;;;;;;;;;20.07;37.87;99554.22;4889508;28;98379;-71
2023/07/25 06:07:02;;;;;;;;;;;;;;;20.01;37.91;99561.91;4906790;28;98328;-72
2023/07/25 06:09:29;;;;;;;;;;;;;;;19.95;37.75;99563.31;4918639;28;97997;-71
2023/07/25 06:11:56;;;;;;;;;;;;;;;19.91;37.76;99556.97;4921380;28;99076;-71
2023/07/25 06:14:23;;;;;;;;;;;;;;;19.99;37.73;99561.47;4922397;28;98132;-72
2023/07/25 06:16:49;;;;;;;;;;;;;;;20.06;37.59;99558.91;4882389;28;98080;-70
2023/07/25 06:19:16;;;;;;;;;;;;;;;20.11;37.64;99557.84;4904986;28;98956;-72
2023/07/25 06:21:43;;;;;;;;;;;;;;;20.12;37.85;99564.91;4904237;28;98165;-70
2023/07/25 06:24:10;;;;;;;;;;;;;;;20.15;37.63;99557.94;4918269;28;99296;-72
2023/07/25 06:26:38;;;;;;;;;;;;;;;20.27;37.55;99557.84;4890950;28;98222;-71
2023/07/25 06:29:05;;;;;;;;;;;;;;;20.50;37.28;99560.78;4920627;28;97986;-72
2023/07/25 06:31:31;;;;;;;;;;;;;;;20.65;37.20;99559.97;4921616;28;101031;-71
2023/07/25 06:33:59;;;;;;;;;;;;;;;20.73;37.26;99566.38;4903961;28;98099;-70
2023/07/25 06:36:26;;;;;;;;;;;;;;;20.72;37.20;99549.16;4889986;28;100118;-71
2023/07/25 06:38:53;;;;;;;;;;;;;;;20.69;37.50;99546.34;4914895;28;98010;-71
2023/07/25 06:41:20;;;;;;;;;;;;;;;20.72;37.48;99545.66;4903711;28;98119;-73
2023/07/25 06:43:47;;;;;;;;;;;;;;;20.74;37.42;99541.38;4922863;28;98058;-72
2023/07/25 06:46:13;;;;;;;;;;;;;;;20.75;37.49;99544.91;4880308;28;98488;-72
2023/07/25 06:48:40;;;;;;;;;;;;;;;20.77;37.57;99524.25;4904793;28;98060;-71
2023/07/25 06:51:08;;;;;;;;;;;;;;;20.78;37.60;99519.56;4902232;28;97956;-71
2023/07/25 06:53:35;;;;;;;;;;;;;;;20.81;37.51;99525.09;4922412;28;98370;-72
2023/07/25 06:56:02;;;;;;;;;;;;;;;20.91;37.45;99528.47;4905742;28;98471;-70
2023/07/25 06:58:29;;;;;;;;;;;;;;;21.00;37.31;99531.78;4884577;28;98158;-70
2023/07/25 07:00:55;;;;;;;;;;;;;;;21.07;37.21;99523.69;4916270;28;98269;-72
2023/07/25 07:03:21;;;;;;;;;;;;;;;21.17;37.22;99516.84;4902647;28;98056;-71
2023/07/25 07:05:54;;;;;;;;;;;;;;;21.43;36.97;99518.94;4921843;28;98019;-71
2023/07/25 07:08:21;;;;;;;;;;;;;;;21.79;36.67;99509.41;4919364;28;98402;-72
2023/07/25 07:10:53;;;;;;;;;;;;;;;21.98;36.57;99517.59;4889654;28;98307;-71
2023/07/25 07:13:20;;;;;;;;;;;;;;;22.19;36.57;99513.63;4897643;28;97999;-72
2023/07/25 07:15:47;;;;;;;;;;;;;;;23.07;35.90;99504.28;4906268;28;98444;-71
2023/07/25 07:18:14;;;;;;;;;;;;;;;23.86;35.25;99492.97;4906573;28;98226;-71
2023/07/25 07:20:46;;;;;;;;;;;;;;;23.73;35.49;99489.69;4883656;28;98039;-72
2023/07/25 07:23:13;;;;;;;;;;;;;;;24.17;35.50;99485.34;4884796;28;98024;-71
2023/07/25 07:25:40;;;;;;;;;;;;;;;24.38;35.44;99479.19;4897362;28;98304;-71
2023/07/25 07:28:06;;;;;;;;;;;;;;;24.29;35.77;99474.03;4886905;28;98150;-71
2023/07/25 07:30:33;;;;;;;;;;;;;;;24.37;35.55;99467.41;4901353;28;98124;-72
2023/07/25 07:32:59;;;;;;;;;;;;;;;24.58;35.73;99455.75;4899896;28;97988;-72
2023/07/25 07:35:26;;;;;;;;;;;;;;;26.04;34.31;99446.25;4898958;28;98087;-71
2023/07/25 07:37:53;;;;;;;;;;;;;;;26.46;34.21;99447.38;4883034;28;98232;-72
2023/07/25 07:40:20;;;;;;;;;;;;;;;27.24;33.95;99454.59;4883953;28;98449;-71
2023/07/25 07:42:46;;;;;;;;;;;;;;;27.32;34.16;99458.88;4903013;28;99307;-72
2023/07/25 07:45:13;;;;;;;;;;;;;;;28.30;33.42;99461.28;4902431;28;97964;-72
2023/07/25 07:47:40;;;;;;;;;;;;;;;29.09;33.06;99458.41;4917418;28;98162;-72
2023/07/25 07:50:07;;;;;;;;;;;;;;;29.05;33.14;99466.00;4903211;28;99418;-71
2023/07/25 07:52:40;;;;;;;;;;;;;;;29.72;33.02;99460.69;4901206;28;98806;-72
2023/07/25 07:55:09;;;;;;;;;;;;;;;30.12;33.03;99460.03;4888050;28;98104;-72
2023/07/25 07:57:47;;;;;;;;;;;;;;;30.35;32.74;99456.47;4919739;28;97978;-72
2023/07/25 08:00:14;;;;;;;;;;;;;;;30.29;33.47;99456.94;4921019;28;98072;-72
2023/07/25 08:02:45;;;;;;;;;;;;;;;30.22;33.61;99448.75;4941988;28;98422;-72
2023/07/25 08:05:12;;;;;;;;;;;;;;;30.09;33.84;99451.31;4906467;28;98365;-72
2023/07/25 08:07:39;;;;;;;;;;;;;;;29.84;33.77;99448.97;4889275;28;98173;-72
2023/07/25 08:10:06;;;;;;;;;;;;;;;29.63;34.31;99456.84;4879873;28;98181;-72
2023/07/25 08:12:32;;;;;;;;;;;;;;;29.46;34.44;99453.13;4918971;28;98162;-72
2023/07/25 08:14:59;;;;;;;;;;;;;;;29.31;34.47;99464.44;4925416;28;99638;-72
2023/07/25 08:17:26;;;;;;;;;;;;;;;29.51;34.28;99472.06;4902003;28;98284;-72
2023/07/25 08:19:52;;;;;;;;;;;;;;;29.81;33.94;99479.56;4916426;28;97952;-72
2023/07/25 08:22:19;;;;;;;;;;;;;;;30.31;33.53;99473.19;4889164;28;98154;-73
2023/07/25 08:24:45;;;;;;;;;;;;;;;30.56;33.65;99479.06;4919839;28;98110;-72
2023/07/25 08:27:12;;;;;;;;;;;;;;;31.02;33.09;99487.72;4887743;28;98366;-73
2023/07/25 08:29:43;;;;;;;;;;;;;;;31.47;32.80;99481.56;4902631;28;98247;-73
2023/07/25 08:32:09;;;;;;;;;;;;;;;31.15;33.45;99487.84;4886035;28;98630;-72
2023/07/25 08:34:37;;;;;;;;;;;;;;;31.05;33.55;99492.44;4935810;28;98205;-73
2023/07/25 08:37:04;;;;;;;;;;;;;;;30.13;34.41;99487.38;4879394;28;98293;-72
2023/07/25 08:39:31;;;;;;;;;;;;;;;30.27;33.95;99489.94;4922908;28;98841;-73
2023/07/25 08:41:57;;;;;;;;;;;;;;;31.70;32.82;99486.22;4882931;28;98312;-73
2023/07/25 08:44:25;;;;;;;;;;;;;;;32.34;32.33;99481.81;4881502;28;98235;-73
2023/07/25 08:46:53;;;;;;;;;;;;;;;32.80;32.10;99485.38;4917428;28;97968;-73
2023/07/25 08:49:23;;;;;;;;;;;;;;;33.24;31.85;99478.09;4901772;28;98186;-72
2023/07/25 08:51:53;;;;;;;;;;;;;;;33.38;32.43;99490.06;4904851;28;98098;-73
2023/07/25 08:54:25;;;;;;;;;;;;;;;33.01;32.64;99475.59;4900362;28;98371;-73
2023/07/25 08:56:51;;;;;;;;;;;;;;;31.92;33.75;99478.16;4920143;28;98147;-72
2023/07/25 08:59:18;;;;;;;;;;;;;;;30.97;34.47;99477.88;4904218;28;99845;-73
2023/07/25 09:01:46;;;;;;;;;;;;;;;30.22;34.97;99462.66;4899847;28;98171;-74
2023/07/25 09:04:14;;;;;;;;;;;;;;;29.78;35.20;99481.19;4902994;28;98088;-73
2023/07/25 09:06:40;;;;;;;;;;;;;;;29.72;35.08;99480.13;4923560;28;98006;-72
2023/07/25 09:09:07;;;;;;;;;;;;;;;29.26;35.40;99475.22;4921681;28;98366;-72
2023/07/25 09:11:35;;;;;;;;;;;;;;;28.92;35.63;99481.56;4890761;28;100096;-72
2023/07/25 09:14:01;;;;;;;;;;;;;;;28.69;35.39;99485.03;4902766;28;98082;-73
2023/07/25 09:16:28;;;;;;;;;;;;;;;28.40;35.57;99481.00;4905726;28;98399;-72
2023/07/25 09:18:55;;;;;;;;;;;;;;;28.35;35.65;99474.66;4904882;28;97956;-73
2023/07/25 09:21:22;;;;;;;;;;;;;;;28.28;35.44;99471.97;4888262;28;98054;-73
2023/07/25 09:23:58;;;;;;;;;;;;;;;28.05;35.65;99471.78;4891555;28;97980;-72
2023/07/25 09:26:28;;;;;;;;;;;;;;;28.45;35.25;99470.22;4885100;28;97847;-74
2023/07/25 09:28:56;;;;;;;;;;;;;;;28.73;34.52;99476.66;4921400;28;97905;-71
2023/07/25 09:31:23;;;;;;;;;;;;;;;28.61;34.89;99491.81;4922364;28;98569;-72
2023/07/25 09:33:50;;;;;;;;;;;;;;;28.63;35.06;99487.47;4907255;28;98387;-71
2023/07/25 09:36:18;;;;;;;;;;;;;;;28.50;35.16;99486.44;4920169;28;98935;-72
2023/07/25 09:38:53;;;;;;;;;;;;;;;28.22;35.29;99479.16;4900788;28;98142;-74
2023/07/25 09:41:22;;;;;;;;;;;;;;;27.89;35.59;99473.09;4899193;28;98137;-74
2023/07/25 09:43:52;;;;;;;;;;;;;;;27.70;35.63;99478.38;4923161;28;98005;-74
2023/07/25 09:46:19;;;;;;;;;;;;;;;27.70;35.42;99476.38;4920810;28;99111;-72
2023/07/25 09:48:47;;;;;;;;;;;;;;;28.27;34.60;99470.41;4909556;28;98707;-72
2023/07/25 09:51:14;;;;;;;;;;;;;;;30.04;32.95;99468.47;4907351;28;98103;-72
2023/07/25 09:53:44;;;;;;;;;;;;;;;30.63;32.87;99474.59;4904746;28;98200;-72
2023/07/25 09:56:12;;;;;;;;;;;;;;;31.36;32.35;99481.84;4900866;28;98226;-74
2023/07/25 09:58:38;;;;;;;;;;;;;;;30.74;33.23;99470.41;4910901;28;98066;-74
2023/07/25 10:01:06;;;;;;;;;;;;;;;30.26;34.00;99482.00;4927048;28;98127;-74
2023/07/25 10:03:33;;;;;;;;;;;;;;;29.82;34.23;99470.03;4907578;28;98453;-74
2023/07/25 10:06:00;;;;;;;;;;;;;;;29.62;34.54;99469.97;4924745;28;100248;-74
2023/07/25 10:08:26;;;;;;;;;;;;;;;29.42;34.23;99453.19;4904774;28;98107;-72
2023/07/25 10:10:54;;;;;;;;;;;;;;;29.07;34.90;99452.47;4921861;28;98153;-72
2023/07/25 10:13:21;;;;;;;;;;;;;;;29.12;34.51;99442.91;4906709;28;98362;-74
2023/07/25 10:15:49;;;;;;;;;;;;;;;29.22;34.40;99436.44;4908518;28;98096;-75
2023/07/25 10:18:25;;;;;;;;;;;;;;;29.44;34.02;99438.91;4909014;28;100025;-71
2023/07/25 10:20:52;;;;;;;;;;;;;;;31.04;32.78;99443.53;4889203;28;98677;-72
2023/07/25 10:23:19;;;;;;;;;;;;;;;32.56;31.69;99440.22;4891643;28;98446;-75
2023/07/25 10:25:46;;;;;;;;;;;;;;;32.80;31.93;99446.31;4912688;28;98129;-75
2023/07/25 10:28:14;;;;;;;;;;;;;;;34.07;31.10;99441.97;4901918;28;98304;-75
2023/07/25 10:30:45;;;;;;;;;;;;;;;32.90;32.35;99436.84;4924569;28;98125;-72
2023/07/25 10:33:18;;;;;;;;;;;;;;;32.17;32.96;99449.63;4911353;28;98151;-76
2023/07/25 10:35:54;;;;;;;;;;;;;;;31.72;33.27;99430.88;4925762;28;98420;-77
2023/07/25 10:38:34;;;;;;;;;;;;;;;30.97;34.05;99433.38;4941885;28;100325;-73
2023/07/25 10:41:09;;;;;;;;;;;;;;;31.10;33.55;99435.50;4910241;28;98286;-72
2023/07/25 10:43:55;;;;;;;;;;;;;;;30.97;33.76;99432.56;4920672;28;98031;-73
2023/07/25 10:46:27;;;;;;;;;;;;;;;32.33;32.35;99434.88;4941758;28;98244;-76
2023/07/25 10:49:17;;;;;;;;;;;;;;;34.37;30.72;99432.13;4923496;28;98088;-75
2023/07/25 10:51:53;;;;;;;;;;;;;;;35.02;30.50;99422.16;4926939;28;98061;-72
2023/07/25 10:54:24;;;;;;;;;;;;;;;33.82;31.84;99429.59;4889559;28;101038;-76
2023/07/25 10:57:22;;;;;;;;;;;;;;;32.72;33.07;99428.22;4921050;28;98549;-73
2023/07/25 10:59:58;;;;;;;;;;;;;;;31.74;33.93;99420.84;4908905;28;98088;-72
2023/07/25 11:02:40;;;;;;;;;;;;;;;31.37;34.25;99422.16;4939766;28;99093;-72
2023/07/25 11:05:12;;;;;;;;;;;;;;;31.17;34.04;99419.41;4929816;28;97980;-72
2023/07/25 11:07:51;;;;;;;;;;;;;;;30.80;34.50;99418.63;4937199;28;98182;-72
2023/07/25 11:10:28;;;;;;;;;;;;;;;30.28;34.73;99426.81;4906438;28;98437;-75
2023/07/25 11:12:56;;;;;;;;;;;;;;;29.97;34.85;99424.16;4883247;28;98079;-72
2023/07/25 11:15:23;;;;;;;;;;;;;;;29.70;35.25;99417.88;4900068;28;99823;-72
2023/07/25 11:17:49;;;;;;;;;;;;;;;29.58;35.21;99411.72;4905298;28;98134;-72
2023/07/25 11:20:17;;;;;;;;;;;;;;;29.34;35.47;99416.44;4907888;28;98193;-72
2023/07/25 11:22:43;;;;;;;;;;;;;;;29.18;35.17;99423.81;4903275;28;99678;-76
2023/07/25 11:25:09;;;;;;;;;;;;;;;28.91;35.49;99413.47;4922717;28;98275;-76
2023/07/25 11:27:43;;;;;;;;;;;;;;;28.59;35.34;99413.88;4921694;28;98154;-72
2023/07/25 11:30:19;;;;;;;;;;;;;;;28.33;35.43;99404.25;4904951;28;98017;-72
2023/07/25 11:32:47;;;;;;;;;;;;;;;28.23;35.65;99403.16;4927597;28;103575;-72
2023/07/25 11:35:15;;;;;;;;;;;;;;;28.28;35.40;99401.94;4908465;28;97872;-75
2023/07/25 11:37:43;;;;;;;;;;;;;;;28.38;35.40;99398.28;4894367;28;98687;-75
2023/07/25 11:40:19;;;;;;;;;;;;;;;28.47;34.93;99400.56;4907180;28;98824;-75
2023/07/25 11:42:50;;;;;;;;;;;;;;;28.45;35.25;99394.63;4927489;28;98002;-76
2023/07/25 11:45:16;;;;;;;;;;;;;;;28.41;35.29;99391.13;4890594;28;98229;-71
2023/07/25 11:47:47;;;;;;;;;;;;;;;28.24;35.15;99387.34;4883257;28;97972;-71
2023/07/25 11:50:14;;;;;;;;;;;;;;;27.98;35.44;99389.59;4918070;28;98311;-75
2023/07/25 11:52:41;;;;;;;;;;;;;;;27.74;35.44;99391.38;4898888;28;98023;-72
2023/07/25 11:55:08;;;;;;;;;;;;;;;27.56;35.48;99387.97;4906464;28;98081;-71
2023/07/25 11:57:35;;;;;;;;;;;;;;;27.47;35.73;99388.44;4921662;28;98385;-75
2023/07/25 12:00:03;;;;;;;;;;;;;;;27.38;35.51;99391.63;4893005;28;98302;-76
2023/07/25 12:02:38;;;;;;;;;;;;;;;27.30;35.64;99387.34;4892994;28;98545;-71
2023/07/25 12:05:05;;;;;;;;;;;;;;;27.30;35.60;99381.81;4885292;28;98044;-75
2023/07/25 12:07:49;;;;;;;;;;;;;;;27.26;35.53;99374.75;4905187;28;97992;-71
2023/07/25 12:10:28;;;;;;;;;;;;;;;27.27;35.72;99382.63;4923326;28;98149;-75
2023/07/25 12:12:55;;;;;;;;;;;;;;;27.24;35.44;99389.00;4904381;28;98169;-71
2023/07/25 12:15:23;;;;;;;;;;;;;;;27.22;35.51;99371.22;4898488;28;97952;-75
2023/07/25 12:17:49;;;;;;;;;;;;;;;27.09;35.51;99379.19;4921039;28;98454;-75
2023/07/25 12:20:18;;;;;;;;;;;;;;;27.01;35.48;99381.22;4907128;28;98141;-75
2023/07/25 12:22:48;;;;;;;;;;;;;;;27.01;35.34;99381.22;4887197;28;97877;-74
2023/07/25 12:25:18;;;;;;;;;;;;;;;27.08;35.30;99380.38;4910348;28;98100;-71
2023/07/25 12:27:48;;;;;;;;;;;;;;;27.13;35.21;99374.44;4906355;28;98244;-72
2023/07/25 12:30:15;;;;;;;;;;;;;;;27.02;35.35;99376.47;4922598;28;97934;-74
2023/07/25 12:32:42;;;;;;;;;;;;;;;27.05;35.32;99373.69;4906262;28;98203;-71
2023/07/25 12:35:11;;;;;;;;;;;;;;;27.13;35.17;99378.00;4906581;28;98428;-71
2023/07/25 12:37:37;;;;;;;;;;;;;;;26.89;35.43;99374.16;4891495;28;98141;-76
2023/07/25 12:40:04;;;;;;;;;;;;;;;26.65;35.57;99373.13;4904532;28;98219;-76
2023/07/25 12:42:31;;;;;;;;;;;;;;;26.64;35.70;99366.00;4921665;28;98185;-75
2023/07/25 12:45:01;;;;;;;;;;;;;;;26.66;35.48;99368.38;4885053;28;98231;-72
2023/07/25 12:47:27;;;;;;;;;;;;;;;26.54;35.71;99372.38;4903787;28;100117;-72
2023/07/25 12:49:54;;;;;;;;;;;;;;;26.41;35.59;99379.50;4906338;28;98130;-71